Time;durP1;ratioP1;P1;durP2;ratioP2;P2;SDS_P1;SDS_P2;PMS_P1;PMS_P2;Temp;Humidity;BMP_temperature;BMP_pressure;BME280_temperature;BME280_humidity;BME280_pressure;Samples;Min_cycle;Max_cycle;Signal;HPM_P1;HPM_P2
2022/03/20 00:00:50;;;;;;;14.00;6.00;;;9.70;75.10;;;;;;5068915;28;20187;-63
2022/03/20 00:03:16;;;;;;;9.18;6.10;;;9.70;75.60;;;;;;5069364;28;20186;-67
2022/03/20 00:05:42;;;;;;;11.38;6.45;;;9.70;76.20;;;;;;5067181;28;20468;-68
2022/03/20 00:08:09;;;;;;;10.15;6.30;;;10.10;78.90;;;;;;5067733;28;20443;-63
2022/03/20 00:10:39;;;;;;;10.73;6.47;;;10.40;79.20;;;;;;5066796;28;20182;-66
2022/03/20 00:13:10;;;;;;;9.95;6.47;;;10.10;79.90;;;;;;5067272;28;20249;-66
2022/03/20 00:15:40;;;;;;;9.70;6.32;;;10.00;79.30;;;;;;5071142;28;20186;-66
2022/03/20 00:18:07;;;;;;;11.93;7.25;;;9.80;79.20;;;;;;5067888;28;20194;-67
2022/03/20 00:20:38;;;;;;;11.35;6.57;;;9.70;79.20;;;;;;5067699;28;20212;-66
2022/03/20 00:23:05;;;;;;;16.05;7.32;;;9.70;79.30;;;;;;5066826;28;20229;-67
2022/03/20 00:25:34;;;;;;;12.07;6.57;;;9.60;79.30;;;;;;5068586;28;20210;-66
2022/03/20 00:28:00;;;;;;;9.90;5.85;;;9.50;79.40;;;;;;5069217;28;20187;-65
2022/03/20 00:30:25;;;;;;;11.95;6.70;;;9.50;79.60;;;;;;5066140;28;20210;-69
2022/03/20 00:32:51;;;;;;;12.63;7.03;;;9.40;79.60;;;;;;5066908;28;20256;-65
2022/03/20 00:35:16;;;;;;;15.45;6.40;;;9.40;79.70;;;;;;5069326;28;20194;-64
2022/03/20 00:37:42;;;;;;;10.57;7.05;;;9.30;79.80;;;;;;5065113;28;20623;-65
2022/03/20 00:40:08;;;;;;;13.30;7.57;;;9.30;80.00;;;;;;5068285;28;20639;-64
2022/03/20 00:42:34;;;;;;;10.88;7.35;;;9.30;80.20;;;;;;5051006;28;20191;-66
2022/03/20 00:44:59;;;;;;;11.43;7.78;;;9.20;80.30;;;;;;5070137;28;20182;-65
2022/03/20 00:47:25;;;;;;;12.75;7.82;;;9.20;80.50;;;;;;5067007;28;20225;-63
2022/03/20 00:49:51;;;;;;;16.08;8.35;;;9.20;80.70;;;;;;5066933;28;20191;-66
2022/03/20 00:52:17;;;;;;;14.77;7.50;;;9.20;80.60;;;;;;5068458;28;20202;-65
2022/03/20 00:54:42;;;;;;;15.60;8.07;;;9.20;80.60;;;;;;5070169;28;20178;-65
2022/03/20 00:57:08;;;;;;;13.45;8.52;;;9.20;81.00;;;;;;5066776;28;20175;-67
2022/03/20 00:59:33;;;;;;;15.27;8.38;;;9.10;80.70;;;;;;5066017;28;20570;-64
2022/03/20 01:01:59;;;;;;;14.20;8.85;;;9.10;81.00;;;;;;5068760;28;20189;-66
2022/03/20 01:04:25;;;;;;;17.05;9.35;;;9.10;81.20;;;;;;5066464;28;20683;-67
2022/03/20 01:06:51;;;;;;;14.18;10.00;;;9.10;81.30;;;;;;5068531;28;20412;-66
2022/03/20 01:09:17;;;;;;;15.27;10.23;;;9.50;82.60;;;;;;5065272;28;20485;-66
2022/03/20 01:11:44;;;;;;;15.05;10.07;;;9.70;81.00;;;;;;5067272;28;21824;-66
2022/03/20 01:14:11;;;;;;;16.35;9.85;;;9.90;80.60;;;;;;5067056;28;20514;-66
2022/03/20 01:16:37;;;;;;;16.75;9.75;;;10.00;80.00;;;;;;5066484;28;20404;-68
2022/03/20 01:19:02;;;;;;;16.50;10.80;;;10.10;79.90;;;;;;5049755;28;20403;-66
2022/03/20 01:21:30;;;;;;;15.00;10.23;;;10.10;80.30;;;;;;5063098;28;20474;-68
2022/03/20 01:23:56;;;;;;;15.05;10.35;;;10.10;79.90;;;;;;5065372;28;20423;-66
2022/03/20 01:26:23;;;;;;;15.50;10.50;;;10.10;80.40;;;;;;5067373;28;20405;-66
2022/03/20 01:28:49;;;;;;;16.40;10.40;;;10.10;79.70;;;;;;5065490;28;20388;-66
2022/03/20 01:31:14;;;;;;;16.90;10.35;;;10.10;79.30;;;;;;5066033;28;20407;-66
2022/03/20 01:33:41;;;;;;;17.23;9.77;;;10.10;79.30;;;;;;5067582;28;20561;-65
2022/03/20 01:36:07;;;;;;;13.90;10.25;;;10.10;79.70;;;;;;5064682;28;20626;-65
2022/03/20 01:38:32;;;;;;;15.95;11.02;;;10.00;79.30;;;;;;5067155;28;20834;-66
2022/03/20 01:41:00;;;;;;;14.43;10.47;;;10.00;79.40;;;;;;5065856;28;20991;-66
2022/03/20 01:43:26;;;;;;;15.25;10.63;;;10.00;80.00;;;;;;5065916;28;20418;-66
2022/03/20 01:45:52;;;;;;;16.77;11.20;;;10.00;79.80;;;;;;5065836;28;20942;-65
2022/03/20 01:48:18;;;;;;;17.77;10.85;;;10.00;79.70;;;;;;5067050;28;20506;-66
2022/03/20 01:50:44;;;;;;;15.10;10.77;;;10.00;80.60;;;;;;5066175;28;20501;-64
2022/03/20 01:53:10;;;;;;;15.00;10.35;;;10.00;80.10;;;;;;5068417;28;20683;-65
2022/03/20 01:55:36;;;;;;;16.42;10.85;;;10.00;79.70;;;;;;5065986;28;20415;-64
2022/03/20 01:58:02;;;;;;;15.40;10.73;;;9.90;80.30;;;;;;5065167;28;20414;-65
2022/03/20 02:00:29;;;;;;;16.75;10.82;;;9.90;80.50;;;;;;5064832;28;20422;-64
2022/03/20 02:02:55;;;;;;;17.65;10.98;;;9.90;81.10;;;;;;5066934;28;20404;-67
2022/03/20 02:05:21;;;;;;;15.50;11.15;;;9.90;81.10;;;;;;5066180;28;20986;-64
2022/03/20 02:07:50;;;;;;;17.45;10.85;;;9.80;82.00;;;;;;5065932;28;20419;-65
2022/03/20 02:10:16;;;;;;;15.43;11.03;;;9.80;81.80;;;;;;5064637;28;20415;-65
2022/03/20 02:12:43;;;;;;;14.68;10.75;;;9.80;81.70;;;;;;5062321;28;20502;-64
2022/03/20 02:15:13;;;;;;;13.65;10.20;;;9.80;81.80;;;;;;5063844;28;20446;-65
2022/03/20 02:17:41;;;;;;;15.95;10.90;;;9.70;82.90;;;;;;5065926;28;20426;-67
2022/03/20 02:20:08;;;;;;;17.63;10.63;;;9.70;83.40;;;;;;5063992;28;20439;-65
2022/03/20 02:22:42;;;;;;;15.27;11.13;;;9.70;82.80;;;;;;5064569;28;20907;-66
2022/03/20 02:25:10;;;;;;;16.77;10.88;;;9.70;82.80;;;;;;5063865;28;20425;-64
2022/03/20 02:27:39;;;;;;;17.63;10.05;;;9.70;83.30;;;;;;5047595;28;20416;-65
2022/03/20 02:30:12;;;;;;;15.45;10.10;;;9.70;83.40;;;;;;5065945;28;20416;-63
2022/03/20 02:32:39;;;;;;;14.65;9.70;;;9.60;84.70;;;;;;5067218;28;20426;-66
2022/03/20 02:35:07;;;;;;;16.55;10.18;;;9.60;85.00;;;;;;5064677;28;21011;-63
2022/03/20 02:37:34;;;;;;;16.83;10.43;;;9.60;85.10;;;;;;5063846;28;20419;-66
2022/03/20 02:40:02;;;;;;;17.35;10.60;;;9.50;85.20;;;;;;5066023;28;20415;-64
2022/03/20 02:42:29;;;;;;;17.67;10.02;;;9.50;85.80;;;;;;5066061;28;20407;-65
2022/03/20 02:45:08;;;;;;;17.23;10.45;;;9.50;85.40;;;;;;5063358;28;20816;-66
2022/03/20 02:47:44;;;;;;;15.88;10.20;;;9.50;85.20;;;;;;5060747;28;20419;-65
2022/03/20 02:50:18;;;;;;;16.05;10.52;;;9.50;85.60;;;;;;5064308;28;20410;-64
2022/03/20 02:52:52;;;;;;;17.92;10.63;;;9.50;86.30;;;;;;5046860;28;20779;-70
2022/03/20 02:55:23;;;;;;;16.58;10.35;;;9.40;85.80;;;;;;5065188;28;20465;-70
2022/03/20 02:57:50;;;;;;;15.52;9.80;;;9.40;85.90;;;;;;5066805;28;20908;-68
2022/03/20 03:00:21;;;;;;;16.65;10.40;;;9.40;86.30;;;;;;5061374;28;20415;-68
2022/03/20 03:02:47;;;;;;;17.73;10.38;;;9.30;86.30;;;;;;5067479;28;20419;-70
2022/03/20 03:05:17;;;;;;;14.37;10.00;;;9.30;86.90;;;;;;5066001;28;20461;-66
2022/03/20 03:13:15;;;;;;;16.92;10.95;;;9.30;87.70;;;;;;5065735;28;20477;-70
2022/03/20 03:15:41;;;;;;;16.75;10.25;;;9.20;87.70;;;;;;5064748;28;20856;-68
2022/03/20 03:18:07;;;;;;;19.40;10.93;;;9.20;88.30;;;;;;5065660;28;20410;-67
2022/03/20 03:20:33;;;;;;;17.17;10.70;;;9.20;88.00;;;;;;5066704;28;20423;-70
2022/03/20 03:22:59;;;;;;;18.17;11.23;;;9.10;88.30;;;;;;5070938;28;20516;-68
2022/03/20 03:25:25;;;;;;;18.10;11.30;;;9.10;88.40;;;;;;5068428;28;20930;-66
2022/03/20 03:27:52;;;;;;;16.42;11.05;;;9.10;88.70;;;;;;5070346;28;20411;-65
2022/03/20 03:30:17;;;;;;;15.80;10.45;;;9.10;88.40;;;;;;5067465;28;20418;-65
2022/03/20 03:32:43;;;;;;;17.00;11.32;;;9.00;88.60;;;;;;5067247;28;20415;-65
2022/03/20 03:37:59;;;;;;;20.65;12.18;;;9.00;88.40;;;;;;5069177;28;20395;-68
2022/03/20 03:40:26;;;;;;;20.15;12.15;;;8.90;88.50;;;;;;5068838;28;20445;-69
2022/03/20 03:42:51;;;;;;;19.38;12.60;;;8.90;87.60;;;;;;5070161;28;20395;-68
2022/03/20 03:45:18;;;;;;;19.73;12.43;;;8.90;88.00;;;;;;5066058;28;20435;-66
2022/03/20 03:47:44;;;;;;;20.42;12.50;;;8.90;87.60;;;;;;5068486;28;20407;-67
2022/03/20 03:50:11;;;;;;;20.27;12.60;;;8.90;87.10;;;;;;5068053;28;20407;-67
2022/03/20 03:52:37;;;;;;;19.63;12.80;;;8.90;87.00;;;;;;5068290;28;20433;-66
2022/03/20 03:55:04;;;;;;;19.65;12.68;;;8.80;87.80;;;;;;5067371;28;20433;-67
2022/03/20 03:57:30;;;;;;;20.33;12.35;;;8.80;86.10;;;;;;5066641;28;20439;-64
2022/03/20 03:59:56;;;;;;;18.77;12.93;;;8.80;86.30;;;;;;5066827;28;20435;-68
2022/03/20 04:02:22;;;;;;;19.17;12.35;;;8.80;85.90;;;;;;5067063;28;20449;-68
2022/03/20 04:04:48;;;;;;;20.27;12.53;;;8.80;86.30;;;;;;5066239;28;20422;-64
2022/03/20 04:07:17;;;;;;;18.70;12.23;;;8.80;85.80;;;;;;5068857;28;20405;-69
2022/03/20 04:09:43;;;;;;;21.92;12.50;;;8.70;85.20;;;;;;5067713;28;20411;-69
2022/03/20 04:12:10;;;;;;;21.17;12.77;;;8.70;85.50;;;;;;5068786;28;20469;-66
2022/03/20 04:14:35;;;;;;;21.63;12.85;;;8.70;85.70;;;;;;5070086;28;20407;-70
2022/03/20 04:17:03;;;;;;;19.73;12.80;;;8.70;85.70;;;;;;5067555;28;20509;-68
2022/03/20 04:19:29;;;;;;;18.90;12.88;;;8.70;86.00;;;;;;5066711;28;21002;-65
2022/03/20 04:21:55;;;;;;;21.10;13.40;;;8.60;86.10;;;;;;5064621;28;20462;-68
2022/03/20 04:24:20;;;;;;;21.92;13.30;;;8.60;86.50;;;;;;5066576;28;20420;-64
2022/03/20 04:26:46;;;;;;;19.83;12.83;;;8.60;85.70;;;;;;5065309;28;22087;-68
2022/03/20 04:29:12;;;;;;;22.17;13.40;;;8.60;85.40;;;;;;5067709;28;20884;-70
2022/03/20 04:31:37;;;;;;;19.30;13.30;;;8.60;85.80;;;;;;5067055;28;20411;-66
2022/03/20 04:34:04;;;;;;;22.42;13.65;;;8.60;86.50;;;;;;5067784;28;20407;-68
2022/03/20 04:36:30;;;;;;;22.02;13.93;;;8.60;86.80;;;;;;5066790;28;20447;-69
2022/03/20 04:38:59;;;;;;;20.90;14.00;;;8.50;85.80;;;;;;5065854;28;20934;-68
2022/03/20 04:41:25;;;;;;;21.85;14.25;;;8.50;85.90;;;;;;5079595;28;20411;-65
2022/03/20 04:43:51;;;;;;;20.43;13.60;;;8.50;85.70;;;;;;5066677;28;20896;-67
2022/03/20 04:46:18;;;;;;;23.85;13.88;;;8.50;85.60;;;;;;5048462;28;20455;-64
2022/03/20 04:59:41;;;;;;;21.17;14.48;;;8.30;86.20;;;;;;5062765;28;20419;-67
2022/03/20 05:02:07;;;;;;;22.40;14.23;;;8.30;86.30;;;;;;5058963;28;21195;-67
2022/03/20 05:04:33;;;;;;;20.90;14.38;;;8.30;86.30;;;;;;5064169;28;20427;-64
2022/03/20 05:06:58;;;;;;;22.27;14.50;;;8.20;86.20;;;;;;5067809;28;20400;-64
2022/03/20 05:14:56;;;;;;;23.90;15.15;;;8.20;86.00;;;;;;5063973;28;20430;-64
2022/03/20 05:17:22;;;;;;;22.25;14.43;;;8.10;85.20;;;;;;5064200;28;20407;-64
2022/03/20 05:19:48;;;;;;;27.27;15.35;;;8.10;85.40;;;;;;5060052;28;20744;-63
2022/03/20 05:22:13;;;;;;;22.07;14.83;;;8.10;85.50;;;;;;5062671;28;20822;-68
2022/03/20 05:24:40;;;;;;;20.40;14.30;;;8.00;85.40;;;;;;5049970;28;20409;-65
2022/03/20 05:27:07;;;;;;;22.95;15.55;;;8.10;85.70;;;;;;5065822;28;20387;-68
2022/03/20 05:29:33;;;;;;;25.40;15.70;;;8.00;85.30;;;;;;5067053;28;20405;-67
2022/03/20 05:32:04;;;;;;;21.75;15.23;;;8.00;85.40;;;;;;5065713;28;20425;-67
2022/03/20 05:34:32;;;;;;;24.70;16.45;;;8.00;86.50;;;;;;5064319;28;21008;-67
2022/03/20 05:37:02;;;;;;;25.45;15.70;;;8.00;85.90;;;;;;5068029;28;20425;-66
2022/03/20 05:39:28;;;;;;;24.98;16.17;;;8.00;86.40;;;;;;5064424;28;20776;-68
2022/03/20 05:41:53;;;;;;;22.90;14.77;;;7.90;86.70;;;;;;5067427;28;20391;-71
2022/03/20 05:44:21;;;;;;;23.73;15.20;;;8.00;86.30;;;;;;5063295;28;20417;-68
2022/03/20 05:46:49;;;;;;;24.67;15.32;;;8.00;86.00;;;;;;5058513;28;21178;-67
2022/03/20 05:49:16;;;;;;;21.55;15.05;;;7.90;85.80;;;;;;5059236;28;20476;-66
2022/03/20 05:51:42;;;;;;;26.75;16.35;;;7.90;85.60;;;;;;5064716;28;20907;-66
2022/03/20 05:54:08;;;;;;;27.00;15.25;;;7.90;84.90;;;;;;5060508;28;20407;-67
2022/03/20 05:59:19;;;;;;;26.55;16.67;;;7.90;85.70;;;;;;5060124;28;20423;-65
2022/03/20 06:01:45;;;;;;;24.67;16.58;;;7.90;85.80;;;;;;5060100;28;20765;-65
2022/03/20 06:04:10;;;;;;;26.73;16.63;;;7.90;85.70;;;;;;5065892;28;20469;-65
2022/03/20 06:06:37;;;;;;;24.37;16.23;;;7.90;85.80;;;;;;5063409;28;20632;-63
2022/03/20 06:09:06;;;;;;;24.92;16.85;;;7.90;85.80;;;;;;5064932;28;20439;-63
2022/03/20 06:11:35;;;;;;;26.95;17.10;;;7.90;85.60;;;;;;5063467;28;20526;-62
2022/03/20 06:14:01;;;;;;;25.67;16.67;;;7.90;84.80;;;;;;5066021;28;20400;-65
2022/03/20 06:16:28;;;;;;;25.55;16.73;;;7.90;85.40;;;;;;5065184;28;20426;-65
2022/03/20 06:18:55;;;;;;;26.05;17.50;;;7.90;84.60;;;;;;5065350;28;20480;-62
2022/03/20 06:21:22;;;;;;;24.92;15.80;;;7.90;84.30;;;;;;5064430;28;20879;-64
2022/03/20 06:23:49;;;;;;;24.90;16.17;;;7.90;85.00;;;;;;5064470;28;20827;-65
2022/03/20 06:26:16;;;;;;;23.60;15.65;;;7.80;84.80;;;;;;5065853;28;20872;-67
2022/03/20 06:28:43;;;;;;;22.27;15.85;;;7.90;85.60;;;;;;5064045;28;20532;-66
2022/03/20 06:31:12;;;;;;;27.45;16.50;;;7.90;85.90;;;;;;5066027;28;20820;-65
2022/03/20 06:33:39;;;;;;;24.60;15.73;;;7.90;85.20;;;;;;5064315;28;20440;-64
2022/03/20 06:36:06;;;;;;;25.70;17.65;;;7.90;84.00;;;;;;5065170;28;20399;-63
2022/03/20 06:38:35;;;;;;;28.23;17.25;;;7.90;84.20;;;;;;5064481;28;20887;-66
2022/03/20 06:41:02;;;;;;;27.52;17.10;;;7.90;83.80;;;;;;5064197;28;20964;-66
2022/03/20 06:43:28;;;;;;;26.20;18.10;;;7.90;83.40;;;;;;5062328;28;20746;-64
2022/03/20 06:45:54;;;;;;;25.20;17.08;;;7.90;83.20;;;;;;5061240;28;20427;-69
2022/03/20 06:48:20;;;;;;;25.73;17.35;;;8.00;83.40;;;;;;5065704;28;20464;-65
2022/03/20 06:50:46;;;;;;;26.53;17.07;;;8.00;83.40;;;;;;5065961;28;20419;-62
2022/03/20 06:53:12;;;;;;;29.30;18.23;;;8.00;83.60;;;;;;5064674;28;20511;-60
2022/03/20 06:55:38;;;;;;;25.30;16.03;;;8.00;82.60;;;;;;5068004;28;20403;-65
2022/03/20 06:58:05;;;;;;;28.98;17.60;;;8.00;82.90;;;;;;5068583;28;20407;-61
2022/03/20 07:00:31;;;;;;;26.20;17.30;;;8.10;83.70;;;;;;5066122;28;20937;-63
2022/03/20 07:03:00;;;;;;;25.20;16.88;;;8.10;83.90;;;;;;5068437;28;20407;-64
2022/03/20 07:05:26;;;;;;;25.45;16.95;;;8.10;83.00;;;;;;5071356;28;20468;-63
2022/03/20 07:07:53;;;;;;;23.60;16.65;;;8.10;83.70;;;;;;5061921;28;20439;-65
2022/03/20 07:10:23;;;;;;;22.73;16.08;;;8.10;82.50;;;;;;5068921;28;20410;-62
2022/03/20 07:12:50;;;;;;;27.83;17.90;;;8.10;83.10;;;;;;5066318;28;20438;-63
2022/03/20 07:15:18;;;;;;;24.30;17.77;;;8.10;82.30;;;;;;5066460;28;20434;-63
2022/03/20 07:17:46;;;;;;;26.30;18.08;;;8.10;82.70;;;;;;5068569;28;20892;-62
2022/03/20 07:20:13;;;;;;;24.92;16.90;;;8.20;83.50;;;;;;5068768;28;20399;-68
2022/03/20 07:22:39;;;;;;;27.05;17.80;;;8.20;82.90;;;;;;5067485;28;20419;-62
2022/03/20 07:30:34;;;;;;;26.77;17.67;;;8.30;81.90;;;;;;5068168;28;20423;-63
2022/03/20 07:33:00;;;;;;;26.80;17.23;;;8.30;81.20;;;;;;5068609;28;20403;-65
2022/03/20 07:35:26;;;;;;;29.88;17.80;;;8.40;81.00;;;;;;5067750;28;20773;-64
2022/03/20 07:37:51;;;;;;;26.33;18.43;;;8.30;80.10;;;;;;5069714;28;20435;-66
2022/03/20 07:40:17;;;;;;;26.95;18.63;;;8.40;80.20;;;;;;5065980;28;20415;-65
2022/03/20 07:42:43;;;;;;;26.48;17.77;;;8.40;80.90;;;;;;5068641;28;20479;-65
2022/03/20 07:45:09;;;;;;;36.47;19.20;;;8.50;81.90;;;;;;5067130;28;20493;-66
2022/03/20 07:47:35;;;;;;;27.05;18.73;;;8.60;80.30;;;;;;5069207;28;20423;-64
2022/03/20 07:50:02;;;;;;;28.45;18.23;;;8.70;78.60;;;;;;5067453;28;20495;-66
2022/03/20 07:52:29;;;;;;;25.45;17.80;;;8.80;78.30;;;;;;5070478;28;20419;-68
2022/03/20 07:54:54;;;;;;;24.30;16.38;;;8.80;77.80;;;;;;5069464;28;20296;-65
2022/03/20 07:57:20;;;;;;;26.73;17.52;;;8.50;79.40;;;;;;5066478;28;20820;-64
2022/03/20 07:59:47;;;;;;;25.00;17.35;;;8.70;80.60;;;;;;5068077;28;20918;-69
2022/03/20 08:02:13;;;;;;;25.20;17.67;;;8.90;79.20;;;;;;5068118;28;20411;-64
2022/03/20 08:04:40;;;;;;;27.07;18.57;;;9.10;77.80;;;;;;5064367;28;20499;-67
2022/03/20 08:07:06;;;;;;;27.50;19.30;;;9.20;76.60;;;;;;5066890;28;20768;-65
2022/03/20 08:09:32;;;;;;;25.55;17.73;;;9.20;76.00;;;;;;5069524;28;20879;-66
2022/03/20 08:11:58;;;;;;;30.10;19.70;;;9.30;76.10;;;;;;5068801;28;20407;-64
2022/03/20 08:14:24;;;;;;;30.38;20.10;;;9.40;75.80;;;;;;5070234;28;20548;-64
2022/03/20 08:16:53;;;;;;;28.67;19.03;;;9.50;75.80;;;;;;5065543;28;20896;-64
2022/03/20 08:19:23;;;;;;;26.98;18.75;;;9.60;74.70;;;;;;5063721;28;20835;-65
2022/03/20 08:21:49;;;;;;;27.38;19.15;;;9.60;75.00;;;;;;5067202;28;20415;-65
2022/03/20 08:24:15;;;;;;;28.48;18.90;;;9.60;74.40;;;;;;5068076;28;20827;-64
2022/03/20 08:26:42;;;;;;;27.15;18.60;;;9.60;75.50;;;;;;5068127;28;20759;-64
2022/03/20 08:29:10;;;;;;;27.10;18.40;;;9.70;73.40;;;;;;5068134;28;20472;-63
2022/03/20 08:31:36;;;;;;;26.52;18.52;;;9.70;73.50;;;;;;5063557;28;20411;-66
2022/03/20 08:34:02;;;;;;;26.83;18.87;;;9.70;73.30;;;;;;5065288;28;20499;-66
2022/03/20 08:36:28;;;;;;;29.17;18.60;;;9.80;72.80;;;;;;5068098;28;20415;-68
2022/03/20 08:38:53;;;;;;;26.88;18.48;;;10.00;73.10;;;;;;5065720;28;20929;-65
2022/03/20 08:41:19;;;;;;;27.47;18.67;;;10.30;72.90;;;;;;5062202;28;20406;-65
2022/03/20 08:43:45;;;;;;;27.50;18.35;;;10.50;70.90;;;;;;5065145;28;20504;-66
2022/03/20 08:46:11;;;;;;;28.63;19.40;;;10.80;67.80;;;;;;5066974;28;20989;-63
2022/03/20 08:48:37;;;;;;;27.40;19.20;;;11.00;65.80;;;;;;5069542;28;20620;-64
2022/03/20 08:51:02;;;;;;;32.50;20.83;;;11.10;65.50;;;;;;5064668;28;20910;-67
2022/03/20 08:53:29;;;;;;;31.30;21.30;;;11.40;65.40;;;;;;5065602;28;20462;-64
2022/03/20 08:55:55;;;;;;;25.95;18.30;;;11.70;63.00;;;;;;5060905;28;20873;-65
2022/03/20 08:58:20;;;;;;;25.25;18.25;;;11.90;60.30;;;;;;5060235;28;20653;-62
2022/03/20 09:00:46;;;;;;;28.55;18.50;;;11.80;60.30;;;;;;5062931;28;20407;-64
2022/03/20 09:03:13;;;;;;;28.75;18.70;;;11.70;60.10;;;;;;5068224;28;20186;-67
2022/03/20 09:05:39;;;;;;;28.05;17.83;;;11.10;63.00;;;;;;5069673;28;20186;-66
2022/03/20 09:08:06;;;;;;;29.23;18.73;;;10.70;64.90;;;;;;5066272;28;20209;-68
2022/03/20 09:10:31;;;;;;;;;;;10.30;66.20;;;;;;5066603;28;20040;-68
2022/03/20 09:13:00;;;;;;;;;;;10.00;67.60;;;;;;5069711;28;19913;-69
2022/03/20 09:15:26;;;;;;;;;;;9.70;68.40;;;;;;5069796;28;19995;-68
2022/03/20 09:20:37;;;;;;;;;;;9.30;70.40;;;;;;5070334;28;19919;-63
2022/03/20 09:23:03;;;;;;;;;;;9.30;71.10;;;;;;5068702;28;19943;-64
2022/03/20 09:25:29;;;;;;;;;;;9.40;72.00;;;;;;5068010;28;19912;-68
2022/03/20 09:27:54;;;;;;;;;;;9.60;71.70;;;;;;5068172;28;19908;-64
2022/03/20 09:30:21;;;;;;;;;;;9.70;71.00;;;;;;5066062;28;20383;-66
2022/03/20 09:32:48;;;;;;;;;;;9.80;71.10;;;;;;5066328;28;20285;-66
2022/03/20 09:35:14;;;;;;;;;;;9.80;71.20;;;;;;5063970;28;19912;-63
2022/03/20 09:37:40;;;;;;;30.13;18.50;;;9.70;71.10;;;;;;5051448;28;20181;-63
2022/03/20 09:40:12;;;;;;;30.42;18.98;;;9.70;70.50;;;;;;5059142;28;20187;-65
2022/03/20 09:42:38;;;;;;;;;;;9.60;69.90;;;;;;5063292;28;20036;-66
2022/03/20 09:45:05;;;;;;;;;;;9.50;70.30;;;;;;5064636;28;19940;-62
2022/03/20 09:47:34;;;;;;;;;;;9.30;70.60;;;;;;5079981;28;20351;-65
2022/03/20 09:50:00;;;;;;;;;;;9.20;70.70;;;;;;5064891;28;19966;-66
2022/03/20 09:52:25;;;;;;;;;;;9.10;71.20;;;;;;5068499;28;19928;-68
2022/03/20 09:54:51;;;;;;;;;;;9.00;71.50;;;;;;5069342;28;20463;-64
2022/03/20 09:57:17;;;;;;;33.55;19.20;;;9.00;71.40;;;;;;5066085;28;20212;-64
2022/03/20 09:59:43;;;;;;;31.55;21.20;;;8.90;70.50;;;;;;5066744;28;20426;-68
2022/03/20 10:02:11;;;;;;;31.83;22.10;;;9.30;68.80;;;;;;5064202;28;20420;-66
2022/03/20 10:04:59;;;;;;;34.50;21.20;;;9.60;67.90;;;;;;5063167;28;20419;-66
2022/03/20 10:07:30;;;;;;;39.03;24.90;;;9.80;67.20;;;;;;5066139;28;20426;-66
2022/03/20 10:10:17;;;;;;;33.22;22.33;;;9.90;67.80;;;;;;5061213;28;20417;-65
2022/03/20 10:12:50;;;;;;;32.22;21.90;;;9.90;66.00;;;;;;5066104;28;20789;-66
2022/03/20 10:15:31;;;;;;;31.83;22.48;;;9.90;64.10;;;;;;5065203;28;20423;-68
2022/03/20 10:18:18;;;;;;;35.83;22.67;;;9.90;65.10;;;;;;5067632;28;20816;-67
2022/03/20 10:20:55;;;;;;;33.35;22.38;;;9.90;65.50;;;;;;5063686;28;20403;-64
2022/03/20 10:23:36;;;;;;;31.73;21.70;;;10.00;66.20;;;;;;5064700;28;20822;-67
2022/03/20 10:26:09;;;;;;;31.20;21.98;;;10.00;65.20;;;;;;5065389;28;20419;-64
2022/03/20 10:28:41;;;;;;;31.40;21.60;;;10.10;64.30;;;;;;5066226;28;20420;-66
2022/03/20 10:31:09;;;;;;;35.22;22.25;;;10.20;65.20;;;;;;5068463;28;20419;-64
2022/03/20 10:33:40;;;;;;;29.30;21.27;;;10.30;63.70;;;;;;5068855;28;20512;-66
2022/03/20 10:36:19;;;;;;;31.80;22.17;;;10.40;63.00;;;;;;5069409;28;20490;-64
2022/03/20 10:38:49;;;;;;;34.65;22.80;;;10.70;63.00;;;;;;5072128;28;20404;-65
2022/03/20 10:41:34;;;;;;;32.72;22.65;;;10.90;61.40;;;;;;5068042;28;20492;-69
2022/03/20 10:44:00;;;;;;;33.70;21.80;;;11.20;60.10;;;;;;5067642;28;20444;-66
2022/03/20 10:46:31;;;;;;;28.47;20.50;;;11.70;58.70;;;;;;5068429;28;20419;-65
2022/03/20 10:48:58;;;;;;;30.35;20.75;;;12.30;59.60;;;;;;5069162;28;20415;-67
2022/03/20 10:51:39;;;;;;;32.05;21.45;;;13.30;56.70;;;;;;5069232;28;20879;-65
2022/03/20 10:54:06;;;;;;;28.65;20.42;;;14.70;52.60;;;;;;5069525;28;20432;-65
2022/03/20 10:56:32;;;;;;;30.70;20.85;;;16.10;48.80;;;;;;5070032;28;20408;-67
2022/03/20 10:58:58;;;;;;;28.53;20.23;;;17.40;45.20;;;;;;5070364;28;20410;-65
2022/03/20 11:01:35;;;;;;;29.03;20.37;;;18.50;41.60;;;;;;5068053;28;20419;-66
2022/03/20 11:04:03;;;;;;;26.75;20.10;;;19.40;38.40;;;;;;5070070;28;20422;-68
2022/03/20 11:06:29;;;;;;;26.40;18.35;;;20.30;37.60;;;;;;5070715;28;20183;-68
2022/03/20 11:08:56;;;;;;;27.77;20.02;;;19.50;41.10;;;;;;5071274;28;20186;-69
2022/03/20 11:11:24;;;;;;;33.17;22.45;;;18.90;43.00;;;;;;5070511;28;20190;-68
2022/03/20 11:13:52;;;;;;;;;;;18.30;43.80;;;;;;5071245;28;20029;-67
2022/03/20 11:16:21;;;;;;;;;;;17.40;44.70;;;;;;5067539;28;19915;-68
2022/03/20 11:18:49;;;;;;;;;;;16.60;46.40;;;;;;5068451;28;20357;-65
2022/03/20 11:21:16;;;;;;;;;;;15.70;47.60;;;;;;5068829;28;19916;-66
2022/03/20 11:23:43;;;;;;;;;;;14.90;48.90;;;;;;5070574;28;19920;-67
2022/03/20 11:26:10;;;;;;;;;;;14.20;50.00;;;;;;5072365;28;19971;-70
2022/03/20 11:28:38;;;;;;;;;;;13.60;51.00;;;;;;5070611;28;19916;-66
2022/03/20 11:31:04;;;;;;;;;;;13.00;51.70;;;;;;5068761;28;20382;-65
2022/03/20 11:33:29;;;;;;;;;;;12.60;52.40;;;;;;5070614;28;20035;-65
2022/03/20 11:35:55;;;;;;;;;;;12.20;53.10;;;;;;5072294;28;19909;-66
2022/03/20 11:38:22;;;;;;;;;;;11.80;54.10;;;;;;5070816;28;19924;-67
2022/03/20 11:41:07;;;;;;;43.63;23.35;;;11.50;54.50;;;;;;5069006;28;20188;-65
2022/03/20 11:43:34;;;;;;;39.07;26.43;;;11.20;54.50;;;;;;5067761;28;20423;-66
2022/03/20 11:46:21;;;;;;;38.45;27.35;;;11.60;57.60;;;;;;5068862;28;20403;-65
2022/03/20 11:49:13;;;;;;;43.00;30.52;;;11.60;62.40;;;;;;5066760;28;20419;-67
2022/03/20 11:51:57;;;;;;;40.53;29.47;;;11.30;67.40;;;;;;5068593;28;21204;-68
2022/03/20 11:54:42;;;;;;;45.50;32.13;;;10.90;72.00;;;;;;5066069;28;20431;-66
2022/03/20 11:57:26;;;;;;;44.83;33.00;;;10.50;77.70;;;;;;5068572;28;20763;-67
2022/03/20 11:59:56;;;;;;;44.55;32.67;;;10.10;82.10;;;;;;5067100;28;20407;-67
2022/03/20 12:02:34;;;;;;;45.20;32.90;;;9.80;82.20;;;;;;5066645;28;20412;-68
2022/03/20 12:05:19;;;;;;;48.28;32.97;;;9.60;83.40;;;;;;5067697;28;20403;-69
2022/03/20 12:08:05;;;;;;;49.92;35.25;;;9.40;86.70;;;;;;5068584;28;20910;-67
2022/03/20 12:10:44;;;;;;;50.63;33.43;;;9.40;89.30;;;;;;5053998;28;20520;-68
2022/03/20 12:13:19;;;;;;;47.53;33.17;;;9.40;89.10;;;;;;5067086;28;20415;-67
2022/03/20 12:15:45;;;;;;;48.47;34.67;;;9.40;89.10;;;;;;5068301;28;20946;-67
2022/03/20 12:18:12;;;;;;;46.47;32.88;;;9.40;89.80;;;;;;5068464;28;20411;-67
2022/03/20 12:21:02;;;;;;;48.08;35.10;;;9.50;90.00;;;;;;5067590;28;20931;-67
2022/03/20 12:23:43;;;;;;;48.55;34.13;;;9.60;89.60;;;;;;5063569;28;20431;-67
2022/03/20 12:26:33;;;;;;;49.33;33.40;;;9.70;89.30;;;;;;5066847;28;20404;-67
2022/03/20 12:29:32;;;;;;;49.00;32.93;;;9.80;88.10;;;;;;5065140;28;20451;-68
2022/03/20 12:32:17;;;;;;;45.30;32.65;;;9.80;87.80;;;;;;5066959;28;20418;-67
2022/03/20 12:34:45;;;;;;;46.97;33.40;;;9.90;87.30;;;;;;5067781;28;20522;-67
2022/03/20 12:37:37;;;;;;;46.55;32.85;;;9.90;87.80;;;;;;5065424;28;20892;-67
2022/03/20 12:40:02;;;;;;;47.58;33.90;;;10.10;88.00;;;;;;5066116;28;20836;-67
2022/03/20 12:42:31;;;;;;;44.97;32.40;;;10.20;86.80;;;;;;5065325;28;20447;-67
2022/03/20 12:44:57;;;;;;;43.20;31.23;;;10.30;84.90;;;;;;5067969;28;20951;-67
2022/03/20 12:47:25;;;;;;;44.95;31.60;;;10.40;85.10;;;;;;5065789;28;20549;-68
2022/03/20 12:50:06;;;;;;;44.60;31.08;;;10.40;84.40;;;;;;5067662;28;20391;-67
2022/03/20 12:52:33;;;;;;;43.57;31.80;;;10.50;84.30;;;;;;5066620;28;20415;-67
2022/03/20 12:55:03;;;;;;;44.70;32.17;;;10.60;84.50;;;;;;5067993;28;20489;-69
2022/03/20 12:57:47;;;;;;;42.78;32.80;;;10.70;84.90;;;;;;5065791;28;20442;-67
2022/03/20 13:00:20;;;;;;;44.35;31.83;;;10.80;84.50;;;;;;5066321;28;20403;-67
2022/03/20 13:03:07;;;;;;;40.65;30.45;;;10.90;84.00;;;;;;5064813;28;20415;-69
2022/03/20 13:05:40;;;;;;;40.85;30.63;;;11.10;81.70;;;;;;5082524;28;20400;-67
2022/03/20 13:08:07;;;;;;;40.10;31.17;;;11.10;81.20;;;;;;5065452;28;20403;-68
2022/03/20 13:10:38;;;;;;;43.05;31.58;;;11.20;81.90;;;;;;5062612;28;21336;-69
2022/03/20 13:13:06;;;;;;;42.00;30.52;;;11.20;81.00;;;;;;5064319;28;20423;-67
2022/03/20 13:15:34;;;;;;;42.72;30.95;;;11.40;79.40;;;;;;5068605;28;20415;-66
2022/03/20 13:18:01;;;;;;;43.92;30.63;;;11.50;78.10;;;;;;5067812;28;20450;-68
2022/03/20 13:20:33;;;;;;;42.70;29.70;;;11.60;75.50;;;;;;5066026;28;20407;-67
2022/03/20 13:23:08;;;;;;;47.42;31.20;;;11.70;76.30;;;;;;5067507;28;20404;-67
2022/03/20 13:25:42;;;;;;;41.87;31.00;;;11.80;75.80;;;;;;5065344;28;20407;-67